createdAt,value
2022-12-07T00:00:49.842Z,8.8
2022-12-07T00:02:06.124Z,8.2
2022-12-07T00:03:22.424Z,7.9
2022-12-07T00:04:37.741Z,10.5
2022-12-07T00:05:54.033Z,9.1
2022-12-07T00:07:10.323Z,11.2
2022-12-07T00:08:26.614Z,8.9
2022-12-07T00:09:42.918Z,8.5
2022-12-07T00:10:59.208Z,7.6
2022-12-07T00:12:15.492Z,9.3
2022-12-07T00:13:31.795Z,9.3
2022-12-07T00:14:48.096Z,8.2
2022-12-07T00:16:04.381Z,7.5
2022-12-07T00:17:20.668Z,7.6
2022-12-07T00:18:36.963Z,7.8
2022-12-07T00:19:53.266Z,9.3
2022-12-07T00:21:08.566Z,9.4
2022-12-07T00:22:24.873Z,8.2
2022-12-07T00:23:41.148Z,8.5
2022-12-07T00:24:57.454Z,9.3
2022-12-07T00:26:13.746Z,8.8
2022-12-07T00:27:30.027Z,7.4
2022-12-07T00:28:46.333Z,9.5
2022-12-07T00:30:02.621Z,8
2022-12-07T00:31:18.923Z,7.6
2022-12-07T00:32:35.201Z,8.5
2022-12-07T00:33:51.506Z,9
2022-12-07T00:35:07.797Z,7.9
2022-12-07T00:36:24.082Z,10.7
2022-12-07T00:37:39.406Z,10.7
2022-12-07T00:38:55.691Z,7.7
2022-12-07T00:40:11.990Z,9.1
2022-12-07T00:41:28.290Z,7.9
2022-12-07T00:42:44.581Z,10
2022-12-07T00:44:00.861Z,8.3
2022-12-07T00:45:17.157Z,8.5
2022-12-07T00:46:33.445Z,9.8
2022-12-07T00:47:49.750Z,9.8
2022-12-07T00:49:06.031Z,9.5
2022-12-07T00:50:22.333Z,8.2
2022-12-07T00:51:38.629Z,9.6
2022-12-07T00:52:54.917Z,8.9
2022-12-07T00:54:10.220Z,9.7
2022-12-07T00:55:26.513Z,9
2022-12-07T00:56:42.820Z,8.4
2022-12-07T00:57:59.117Z,9.7
2022-12-07T00:59:15.400Z,8.6
2022-12-07T01:00:31.704Z,11.8
2022-12-07T01:01:47.997Z,9.8
2022-12-07T01:03:04.274Z,10.3
2022-12-07T01:04:20.582Z,11.2
2022-12-07T01:05:36.876Z,11.1
2022-12-07T01:06:53.167Z,9
2022-12-07T01:08:09.463Z,8.7
2022-12-07T01:09:25.752Z,8.2
2022-12-07T01:10:41.054Z,8.7
2022-12-07T01:11:57.360Z,8.3
2022-12-07T01:13:13.642Z,10.2
2022-12-07T01:14:29.934Z,7.9
2022-12-07T01:15:46.226Z,10.6
2022-12-07T01:17:02.529Z,9.3
2022-12-07T01:18:18.828Z,8.2
2022-12-07T01:19:35.104Z,9.6
2022-12-07T01:20:51.399Z,10.2
2022-12-07T01:22:07.705Z,9.4
2022-12-07T01:23:23.980Z,7
2022-12-07T01:24:40.289Z,8.7
2022-12-07T01:25:56.568Z,9.6
2022-12-07T01:27:11.888Z,8.9
2022-12-07T01:28:28.186Z,9.9
2022-12-07T01:29:44.482Z,10.1
2022-12-07T01:31:00.777Z,8.1
2022-12-07T01:32:17.052Z,10
2022-12-07T01:33:33.362Z,8.9
2022-12-07T01:34:49.652Z,9.4
2022-12-07T01:36:05.929Z,13
2022-12-07T01:37:22.230Z,7.3
2022-12-07T01:38:38.518Z,11.4
2022-12-07T01:39:54.823Z,9.9
2022-12-07T01:41:11.119Z,8.9
2022-12-07T01:42:27.397Z,7.5
2022-12-07T01:43:42.719Z,9.6
2022-12-07T01:44:59.016Z,8.9
2022-12-07T01:46:15.310Z,9.8
2022-12-07T01:47:31.596Z,10.8
2022-12-07T01:48:47.882Z,10.5
2022-12-07T01:50:04.189Z,10.9
2022-12-07T01:51:20.470Z,10.2
2022-12-07T01:52:36.776Z,10.4
2022-12-07T01:53:53.064Z,8.8
2022-12-07T01:55:09.359Z,8.6
2022-12-07T01:56:25.657Z,10.6
2022-12-07T01:57:41.936Z,10.4
2022-12-07T01:58:58.227Z,9.8
2022-12-07T02:00:13.536Z,8.8
2022-12-07T02:01:29.839Z,10.9
2022-12-07T02:02:46.137Z,14.9
2022-12-07T02:04:02.434Z,12.9
2022-12-07T02:05:18.714Z,13.2
2022-12-07T02:06:35.003Z,16.3
2022-12-07T02:07:51.299Z,12.5
2022-12-07T02:09:07.600Z,10.7
2022-12-07T02:10:23.869Z,9
2022-12-07T02:11:40.171Z,9.1
2022-12-07T02:12:56.457Z,8.6
2022-12-07T02:14:12.746Z,9.9
2022-12-07T02:15:29.056Z,9.6
2022-12-07T02:16:44.346Z,9.5
2022-12-07T02:18:00.649Z,10.6
2022-12-07T02:19:16.938Z,8.3
2022-12-07T02:20:33.242Z,10.8
2022-12-07T02:21:49.533Z,11.2
2022-12-07T02:24:22.108Z,11.6
2022-12-07T02:25:38.399Z,11.8
2022-12-07T02:26:54.696Z,14.7
2022-12-07T02:28:11.004Z,15.5
2022-12-07T02:29:27.284Z,9.4
2022-12-07T02:30:43.585Z,9.3
2022-12-07T02:31:59.870Z,13.1
2022-12-07T02:33:15.196Z,11.5
2022-12-07T02:34:31.479Z,13.2
2022-12-07T02:35:47.765Z,12
2022-12-07T02:37:04.070Z,10.4
2022-12-07T02:38:20.363Z,9.3
2022-12-07T02:39:36.645Z,9.1
2022-12-07T02:40:52.948Z,9.5
2022-12-07T02:42:09.236Z,13.4
2022-12-07T02:43:25.544Z,11.5
2022-12-07T02:44:41.822Z,12.3
2022-12-07T02:45:58.122Z,11.7
2022-12-07T02:47:14.407Z,13.1
2022-12-07T02:48:30.705Z,11.5
2022-12-07T02:49:46.013Z,8.9
2022-12-07T02:51:02.311Z,11.8
2022-12-07T02:52:18.596Z,9.7
2022-12-07T02:53:34.899Z,10.9
2022-12-07T02:54:51.201Z,10.2
2022-12-07T02:56:07.484Z,10
2022-12-07T02:57:23.772Z,8.1
2022-12-07T02:58:40.071Z,8.2
2022-12-07T02:59:56.367Z,8.9
2022-12-07T03:01:12.670Z,10
2022-12-07T03:02:28.956Z,8.9
2022-12-07T03:03:45.248Z,7.5
2022-12-07T03:05:01.542Z,10.7
2022-12-07T03:06:16.847Z,9.3
2022-12-07T03:07:33.138Z,11.9
2022-12-07T03:08:49.443Z,10.3
2022-12-07T03:10:05.741Z,9.7
2022-12-07T03:11:22.024Z,6.5
2022-12-07T03:12:38.310Z,6.8
2022-12-07T03:13:54.609Z,9.1
2022-12-07T03:15:10.904Z,8.7
2022-12-07T03:16:27.193Z,8.4
2022-12-07T03:17:43.500Z,8.4
2022-12-07T03:18:59.792Z,10.2
2022-12-07T03:20:16.087Z,7.8
2022-12-07T03:21:32.379Z,10.3
2022-12-07T03:22:47.692Z,9.8
2022-12-07T03:24:03.976Z,7.4
2022-12-07T03:25:20.272Z,10
2022-12-07T03:26:36.571Z,9.3
2022-12-07T03:27:52.848Z,9.6
2022-12-07T03:29:09.152Z,7.2
2022-12-07T03:30:25.449Z,9.7
2022-12-07T03:31:41.739Z,8.3
2022-12-07T03:32:58.029Z,7.9
2022-12-07T03:34:14.323Z,10.1
2022-12-07T03:35:30.606Z,9.8
2022-12-07T03:36:46.912Z,7.9
2022-12-07T03:38:03.199Z,7.9
2022-12-07T03:39:18.513Z,9
2022-12-07T03:40:34.800Z,9.1
2022-12-07T03:41:51.102Z,7.8
2022-12-07T03:43:07.404Z,9
2022-12-07T03:44:23.696Z,8.2
2022-12-07T03:45:39.983Z,8.1
2022-12-07T03:46:56.275Z,10.3
2022-12-07T03:48:12.570Z,8.3
2022-12-07T03:49:28.853Z,7.9
2022-12-07T03:50:45.153Z,7.8
2022-12-07T03:52:01.446Z,7.6
2022-12-07T03:53:17.743Z,10.2
2022-12-07T03:54:34.028Z,8.3
2022-12-07T03:55:49.336Z,8.1
2022-12-07T03:57:05.633Z,9.9
2022-12-07T03:58:21.940Z,8.8
2022-12-07T03:59:38.229Z,9.6
2022-12-07T04:00:54.509Z,9.1
2022-12-07T04:02:10.822Z,9.4
2022-12-07T04:03:27.107Z,12.7
2022-12-07T04:04:43.398Z,12.1
2022-12-07T04:05:59.689Z,9.1
2022-12-07T04:07:15.990Z,9.4
2022-12-07T04:08:32.277Z,7.5
2022-12-07T04:09:48.579Z,9.6
2022-12-07T04:11:04.858Z,9.6
2022-12-07T04:12:20.168Z,7.4
2022-12-07T04:13:36.470Z,10.8
2022-12-07T04:14:52.762Z,6.9
2022-12-07T04:16:09.047Z,8.5
2022-12-07T04:17:25.355Z,7.9
2022-12-07T04:18:41.645Z,9.9
2022-12-07T04:19:56.952Z,22.1
2022-12-07T04:21:13.250Z,8
2022-12-07T04:22:29.550Z,9.5
2022-12-07T04:23:45.000Z,10.7
2022-12-07T04:25:02.141Z,9.2
2022-12-07T04:26:18.431Z,7.1
2022-12-07T04:27:34.725Z,13.7
2022-12-07T04:28:51.015Z,11.2
2022-12-07T04:30:07.299Z,9
2022-12-07T04:31:23.592Z,7.5
2022-12-07T04:32:39.898Z,9.7
2022-12-07T04:33:56.175Z,9.3
2022-12-07T04:35:12.484Z,11.2
2022-12-07T04:36:27.782Z,7.5
2022-12-07T04:37:44.088Z,8.1
2022-12-07T04:39:00.365Z,8.6
2022-12-07T04:40:16.677Z,8.3
2022-12-07T04:41:32.958Z,8.1
2022-12-07T04:42:49.251Z,9
2022-12-07T04:44:05.551Z,7.4
2022-12-07T04:45:21.843Z,11.9
2022-12-07T04:46:38.141Z,9.1
2022-12-07T04:47:54.434Z,7.4
2022-12-07T04:49:10.729Z,11.1
2022-12-07T04:50:27.014Z,6.1
2022-12-07T04:51:43.307Z,6.4
2022-12-07T04:52:58.616Z,6.3
2022-12-07T04:54:14.921Z,7.3
2022-12-07T04:55:31.212Z,9.4
2022-12-07T04:56:47.491Z,8
2022-12-07T04:58:03.794Z,11
2022-12-07T04:59:20.093Z,6.8
2022-12-07T05:00:36.379Z,7.5
2022-12-07T05:01:52.664Z,9.1
2022-12-07T05:03:08.972Z,8.7
2022-12-07T05:04:25.263Z,9.3
2022-12-07T05:05:41.544Z,8.6
2022-12-07T05:06:57.848Z,5.9
2022-12-07T05:08:14.148Z,8
2022-12-07T05:09:29.441Z,8.9
2022-12-07T05:10:45.753Z,6.2
2022-12-07T05:12:02.048Z,7.1
2022-12-07T05:13:18.323Z,10.3
2022-12-07T05:14:34.622Z,7.2
2022-12-07T05:15:50.911Z,5.8
2022-12-07T05:17:07.202Z,8.2
2022-12-07T05:18:23.512Z,9
2022-12-07T05:19:39.794Z,8.3
2022-12-07T05:20:56.094Z,8
2022-12-07T05:22:12.379Z,7.6
2022-12-07T05:23:28.686Z,7.5
2022-12-07T05:24:44.963Z,9.5
2022-12-07T05:26:00.273Z,6.8
2022-12-07T05:27:16.585Z,6.5
2022-12-07T05:28:32.867Z,6.6
2022-12-07T05:29:49.163Z,8.4
2022-12-07T05:31:05.461Z,7.8
2022-12-07T05:32:21.746Z,6.3
2022-12-07T05:33:38.046Z,6.8
2022-12-07T05:34:54.330Z,8.7
2022-12-07T05:36:10.622Z,7.7
2022-12-07T05:37:26.929Z,7
2022-12-07T05:38:43.209Z,7.3
2022-12-07T05:39:59.510Z,6.6
2022-12-07T05:41:15.794Z,5.5
2022-12-07T05:42:31.113Z,6.6
2022-12-07T05:43:47.415Z,6.6
2022-12-07T05:45:03.702Z,7
2022-12-07T05:46:19.983Z,6.2
2022-12-07T05:47:36.277Z,8.5
2022-12-07T05:48:52.572Z,8.8
2022-12-07T05:50:08.875Z,8.6
2022-12-07T05:51:25.176Z,6.6
2022-12-07T05:52:41.470Z,7.6
2022-12-07T05:53:57.748Z,11.5
2022-12-07T05:55:14.040Z,6.9
2022-12-07T05:56:30.338Z,7.4
2022-12-07T05:57:46.625Z,10.6
2022-12-07T05:59:01.951Z,7.6
2022-12-07T06:00:18.238Z,7.8
2022-12-07T06:01:34.520Z,7.2
2022-12-07T06:02:50.816Z,7.7
2022-12-07T06:04:07.122Z,7.4
2022-12-07T06:05:23.405Z,5.9
2022-12-07T06:06:39.695Z,8.7
2022-12-07T06:07:55.987Z,7.5
2022-12-07T06:09:12.284Z,6.8
2022-12-07T06:10:28.590Z,7.8
2022-12-07T06:11:44.875Z,7.2
2022-12-07T06:13:01.171Z,7.6
2022-12-07T06:14:17.457Z,10.3
2022-12-07T06:15:32.779Z,8
2022-12-07T06:16:49.066Z,8.4
2022-12-07T06:18:05.348Z,7.4
2022-12-07T06:19:21.643Z,7.6
2022-12-07T06:20:37.950Z,8.9
2022-12-07T06:21:54.237Z,9.1
2022-12-07T06:23:10.536Z,7.7
2022-12-07T06:24:26.762Z,10.1
2022-12-07T06:25:43.075Z,8.4
2022-12-07T06:26:59.361Z,8.5
2022-12-07T06:28:15.617Z,8.7
2022-12-07T06:29:31.851Z,8.9
2022-12-07T06:30:48.150Z,8.6
2022-12-07T06:32:03.459Z,7.3
2022-12-07T06:33:19.742Z,7.8
2022-12-07T06:34:35.998Z,9.4
2022-12-07T06:35:52.226Z,9.8
2022-12-07T06:37:08.520Z,10.7
2022-12-07T06:38:24.788Z,10.6
2022-12-07T06:39:41.028Z,8
2022-12-07T06:40:57.251Z,10
2022-12-07T06:42:13.507Z,8.7
2022-12-07T06:43:29.745Z,10
2022-12-07T06:44:45.967Z,10.6
2022-12-07T06:46:02.222Z,9.2
2022-12-07T06:47:18.455Z,9.7
2022-12-07T06:48:33.714Z,11.1
2022-12-07T06:49:49.960Z,9.3
2022-12-07T06:51:06.195Z,8.4
2022-12-07T06:52:22.439Z,7.8
2022-12-07T06:53:38.671Z,12.6
2022-12-07T06:54:54.913Z,10.6
2022-12-07T06:56:11.140Z,10.4
2022-12-07T06:57:27.377Z,10.7
2022-12-07T06:58:43.620Z,10.1
2022-12-07T06:59:59.862Z,9
2022-12-07T07:01:16.107Z,10.1
2022-12-07T07:02:32.339Z,11
2022-12-07T07:03:48.591Z,10.5
2022-12-07T07:05:03.835Z,9
2022-12-07T07:06:20.068Z,11.6
2022-12-07T07:07:36.321Z,10.2
2022-12-07T07:08:52.557Z,10.7
2022-12-07T07:10:08.794Z,8.9
2022-12-07T07:11:25.027Z,10.3
2022-12-07T07:12:41.266Z,9.1
2022-12-07T07:13:57.507Z,10.1
2022-12-07T07:15:13.759Z,9.1
2022-12-07T07:16:30.001Z,10.4
2022-12-07T07:17:46.236Z,9.9
2022-12-07T07:19:02.462Z,10.8
2022-12-07T07:20:18.719Z,9.2
2022-12-07T07:21:33.964Z,10
2022-12-07T07:22:50.214Z,11.2
2022-12-07T07:24:06.453Z,11.2
2022-12-07T07:25:22.682Z,10
2022-12-07T07:26:38.918Z,9.9
2022-12-07T07:27:55.161Z,9.5
2022-12-07T07:29:11.399Z,10.8
2022-12-07T07:30:27.645Z,10.1
2022-12-07T07:31:43.871Z,11.3
2022-12-07T07:33:00.118Z,11.1
2022-12-07T07:34:16.353Z,10.1
2022-12-07T07:35:32.592Z,9.4
2022-12-07T07:36:48.836Z,13.7
2022-12-07T07:38:04.092Z,10.1
2022-12-07T07:39:20.320Z,11.3
2022-12-07T07:40:36.572Z,12.9
2022-12-07T07:41:52.802Z,12.1
2022-12-07T07:43:09.045Z,14.3
2022-12-07T07:44:25.294Z,11.1
2022-12-07T07:45:41.529Z,12.1
2022-12-07T07:46:57.761Z,11.8
2022-12-07T07:48:14.012Z,11.2
2022-12-07T07:49:30.249Z,11.3
2022-12-07T07:50:46.481Z,12.8
2022-12-07T07:52:02.721Z,11.9
2022-12-07T07:53:18.955Z,10.2
2022-12-07T07:54:34.210Z,11.1
2022-12-07T07:55:50.450Z,10.7
2022-12-07T07:57:06.696Z,11.4
2022-12-07T07:58:22.933Z,11.1
2022-12-07T07:59:39.171Z,10.5
2022-12-07T08:00:55.421Z,10.6
2022-12-07T08:02:11.649Z,11
2022-12-07T08:03:27.903Z,11.2
2022-12-07T08:04:44.129Z,11.1
2022-12-07T08:06:00.369Z,12
2022-12-07T08:07:16.611Z,13.5
2022-12-07T08:08:32.845Z,10.5
2022-12-07T08:09:49.092Z,12.3
2022-12-07T08:11:04.340Z,10.3
2022-12-07T08:12:20.594Z,10
2022-12-07T08:13:36.823Z,11.4
2022-12-07T08:14:53.064Z,15.1
2022-12-07T08:16:09.301Z,12.6
2022-12-07T08:17:25.551Z,10.9
2022-12-07T08:18:41.791Z,9.4
2022-12-07T08:19:58.017Z,13
2022-12-07T08:21:14.262Z,12.1
2022-12-07T08:22:30.503Z,14.2
2022-12-07T08:23:46.735Z,13.9
2022-12-07T08:25:02.989Z,12.6
2022-12-07T08:26:19.225Z,12.2
2022-12-07T08:27:34.484Z,15
2022-12-07T08:28:50.717Z,10.7
2022-12-07T08:30:06.952Z,11.4
2022-12-07T08:31:23.197Z,11.5
2022-12-07T08:32:39.429Z,11.6
2022-12-07T08:33:55.665Z,11.4
2022-12-07T08:35:10.941Z,10.9
2022-12-07T08:36:27.179Z,9.7
2022-12-07T08:37:43.413Z,10.7
2022-12-07T08:38:59.648Z,14.4
2022-12-07T08:40:15.894Z,10
2022-12-07T08:41:32.131Z,12.1
2022-12-07T08:42:48.359Z,12.9
2022-12-07T08:44:04.616Z,11
2022-12-07T08:45:20.851Z,11.7
2022-12-07T08:46:37.074Z,9.3
2022-12-07T08:47:53.326Z,11.8
2022-12-07T08:49:09.560Z,12.1
2022-12-07T08:50:25.793Z,10.8
2022-12-07T08:51:41.055Z,11
2022-12-07T08:52:57.292Z,7.8
2022-12-07T08:54:13.530Z,7.7
2022-12-07T08:55:29.773Z,8.2
2022-12-07T08:56:46.024Z,11
2022-12-07T08:58:02.261Z,8.9
2022-12-07T08:59:18.483Z,9.3
2022-12-07T09:00:34.724Z,11.1
2022-12-07T09:01:50.975Z,9.2
2022-12-07T09:03:07.220Z,8.9
2022-12-07T09:04:23.443Z,8.8
2022-12-07T09:05:39.689Z,10.1
2022-12-07T09:06:55.921Z,7.9
2022-12-07T09:08:11.182Z,13.3
2022-12-07T09:09:27.434Z,8.7
2022-12-07T09:10:43.665Z,9.2
2022-12-07T09:11:59.912Z,9.4
2022-12-07T09:13:16.142Z,9.9
2022-12-07T09:14:32.374Z,9.2
2022-12-07T09:15:48.626Z,8.8
2022-12-07T09:17:04.864Z,11.7
2022-12-07T09:18:21.095Z,11.9
2022-12-07T09:19:37.336Z,8
2022-12-07T09:20:53.585Z,9.7
2022-12-07T09:22:09.806Z,14.2
2022-12-07T09:23:26.051Z,8
2022-12-07T09:24:41.316Z,9.3
2022-12-07T09:25:57.540Z,8.6
2022-12-07T09:27:13.790Z,9.8
2022-12-07T09:28:30.025Z,9
2022-12-07T09:29:46.268Z,9.3
2022-12-07T09:31:02.496Z,7.9
2022-12-07T09:32:18.750Z,10.3
2022-12-07T09:33:34.982Z,9.6
2022-12-07T09:34:51.214Z,8.9
2022-12-07T09:36:07.454Z,8.2
2022-12-07T09:37:23.710Z,7.8
2022-12-07T09:38:39.937Z,7.8
2022-12-07T09:39:56.170Z,8.5
2022-12-07T09:41:11.432Z,8.2
2022-12-07T09:42:27.673Z,13.3
2022-12-07T09:43:43.922Z,7.5
2022-12-07T09:45:00.142Z,9.7
2022-12-07T09:46:16.380Z,9.2
2022-12-07T09:47:32.625Z,8.4
2022-12-07T09:48:48.875Z,6.7
2022-12-07T09:50:05.112Z,10.6
2022-12-07T09:51:21.339Z,6.5
2022-12-07T09:52:37.581Z,8.4
2022-12-07T09:53:53.825Z,11.1
2022-12-07T09:55:10.063Z,6.5
2022-12-07T09:56:26.307Z,7.1
2022-12-07T09:57:41.567Z,7.1
2022-12-07T09:58:57.792Z,10
2022-12-07T10:00:14.033Z,6.3
2022-12-07T10:01:30.269Z,10.7
2022-12-07T10:02:46.524Z,10.6
2022-12-07T10:04:02.746Z,11.4
2022-12-07T10:05:18.983Z,11.4
2022-12-07T10:06:35.222Z,7.9
2022-12-07T10:07:51.473Z,8.8
2022-12-07T10:09:07.719Z,8.5
2022-12-07T10:10:23.939Z,10.2
2022-12-07T10:11:40.179Z,10.2
2022-12-07T10:12:56.423Z,10.6
2022-12-07T10:14:11.681Z,8.3
2022-12-07T10:15:27.924Z,10.9
2022-12-07T10:16:44.170Z,9.3
2022-12-07T10:18:00.403Z,7.7
2022-12-07T10:19:16.634Z,8.1
2022-12-07T10:20:32.884Z,6.3
2022-12-07T10:21:49.122Z,8.5
2022-12-07T10:23:05.348Z,6.4
2022-12-07T10:24:21.584Z,7.4
2022-12-07T10:25:37.841Z,7.1
2022-12-07T10:26:54.062Z,7
2022-12-07T10:28:10.302Z,6.8
2022-12-07T10:29:26.542Z,7.2
2022-12-07T10:30:41.811Z,8.4
2022-12-07T10:31:58.054Z,11.8
2022-12-07T10:33:14.276Z,9
2022-12-07T10:34:30.525Z,13.3
2022-12-07T10:35:46.770Z,7.4
2022-12-07T10:37:03.008Z,9.1
2022-12-07T10:38:19.238Z,5.9
2022-12-07T10:39:35.479Z,10.9
2022-12-07T10:40:51.709Z,6.9
2022-12-07T10:42:07.948Z,13.3
2022-12-07T10:43:24.199Z,9
2022-12-07T10:44:40.443Z,9.1
2022-12-07T10:45:56.670Z,6.8
2022-12-07T10:48:28.167Z,9.5
2022-12-07T10:49:44.409Z,8
2022-12-07T10:51:00.653Z,6.5
2022-12-07T10:52:16.885Z,7.7
2022-12-07T10:53:33.131Z,8
2022-12-07T10:56:05.601Z,7.9
2022-12-07T10:57:21.844Z,6.3
2022-12-07T10:58:38.077Z,8.4
2022-12-07T10:59:54.319Z,7.9
2022-12-07T11:01:10.552Z,7
2022-12-07T11:02:26.804Z,10.1
2022-12-07T11:03:42.063Z,9.1
2022-12-07T11:04:58.303Z,5.2
2022-12-07T11:06:14.537Z,7.6
2022-12-07T11:07:30.765Z,6.1
2022-12-07T11:08:47.001Z,6.1
2022-12-07T11:10:03.244Z,6
2022-12-07T11:11:19.483Z,7
2022-12-07T11:12:35.719Z,9
2022-12-07T11:13:51.968Z,7.2
2022-12-07T11:15:08.207Z,9.2
2022-12-07T11:16:24.436Z,7.9
2022-12-07T11:17:40.687Z,6.9
2022-12-07T11:18:56.929Z,6.2
2022-12-07T11:20:12.186Z,7.8
2022-12-07T11:21:28.419Z,7.7
2022-12-07T11:22:44.647Z,9.5
2022-12-07T11:24:00.899Z,9.7
2022-12-07T11:25:17.140Z,8.2
2022-12-07T11:26:33.376Z,7.7
2022-12-07T11:27:49.615Z,9.3
2022-12-07T11:29:05.862Z,5.3
2022-12-07T11:30:22.092Z,7.3
2022-12-07T11:31:38.325Z,6.8
2022-12-07T11:32:54.572Z,5.8
2022-12-07T11:34:10.809Z,4.2
2022-12-07T11:35:27.050Z,3.8
2022-12-07T11:36:42.307Z,4.4
2022-12-07T11:37:58.539Z,3.8
2022-12-07T11:39:14.782Z,6.7
2022-12-07T11:40:31.017Z,7.2
2022-12-07T11:41:47.258Z,6.9
2022-12-07T11:43:03.495Z,5.9
2022-12-07T11:44:19.737Z,5.9
2022-12-07T11:45:35.988Z,6.6
2022-12-07T11:46:52.218Z,5.6
2022-12-07T11:48:08.458Z,10.9
2022-12-07T11:49:24.697Z,6.2
2022-12-07T11:50:40.924Z,6.7
2022-12-07T11:51:57.181Z,5.6
2022-12-07T11:53:12.433Z,9.7
2022-12-07T11:54:28.669Z,8
2022-12-07T11:55:44.897Z,7.2
2022-12-07T11:57:01.155Z,10.9
2022-12-07T11:58:17.376Z,6.9
2022-12-07T11:59:33.625Z,7.3
2022-12-07T12:00:49.855Z,7.4
2022-12-07T12:02:06.094Z,8.5
2022-12-07T12:03:22.346Z,10.1
2022-12-07T12:04:38.581Z,7.3
2022-12-07T12:05:54.820Z,6.8
2022-12-07T12:07:11.058Z,5.3
2022-12-07T12:08:27.294Z,5.6
2022-12-07T12:09:42.554Z,10.3
2022-12-07T12:10:58.785Z,7.5
2022-12-07T12:12:15.031Z,6.9
2022-12-07T12:13:31.261Z,9.8
2022-12-07T12:14:47.507Z,5.7
2022-12-07T12:16:03.757Z,9.3
2022-12-07T12:17:19.990Z,5.7
2022-12-07T12:18:36.220Z,10
2022-12-07T12:19:52.457Z,8.9
2022-12-07T12:21:08.698Z,6.1
2022-12-07T12:22:24.942Z,6.3
2022-12-07T12:23:41.191Z,7.4
2022-12-07T12:24:57.413Z,6.4
2022-12-07T12:26:12.683Z,4.1
2022-12-07T12:27:28.919Z,7.9
2022-12-07T12:28:45.148Z,5
2022-12-07T12:30:01.402Z,7
2022-12-07T12:31:17.640Z,4
2022-12-07T12:32:33.880Z,5.3
2022-12-07T12:33:50.122Z,6.4
2022-12-07T12:35:06.356Z,4.2
2022-12-07T12:36:22.585Z,8.2
2022-12-07T12:37:38.838Z,4.7
2022-12-07T12:38:55.075Z,3.4
2022-12-07T12:40:11.302Z,4.3
2022-12-07T12:41:27.545Z,4.3
2022-12-07T12:42:42.809Z,5.7
2022-12-07T12:43:59.041Z,3.5
2022-12-07T12:45:15.279Z,3.6
2022-12-07T12:46:31.512Z,8.3
2022-12-07T12:47:47.754Z,9.1
2022-12-07T12:49:04.009Z,4.8
2022-12-07T12:50:19.269Z,4.3
2022-12-07T12:51:35.503Z,3.6
2022-12-07T12:52:51.745Z,7.3
2022-12-07T12:54:07.967Z,6.9
2022-12-07T12:55:24.214Z,8.7
2022-12-07T12:56:40.463Z,7.5
2022-12-07T12:57:56.690Z,4.6
2022-12-07T12:59:12.937Z,3.2
2022-12-07T13:00:29.178Z,5.7
2022-12-07T13:01:45.419Z,4.2
2022-12-07T13:03:01.643Z,3.9
2022-12-07T13:04:17.889Z,3.6
2022-12-07T13:05:34.128Z,4.5
2022-12-07T13:06:49.379Z,3.7
2022-12-07T13:08:05.622Z,5
2022-12-07T13:09:21.856Z,3.8
2022-12-07T13:10:38.100Z,6.1
2022-12-07T13:11:54.332Z,5.1
2022-12-07T13:13:10.588Z,4.8
2022-12-07T13:14:26.817Z,6.9
2022-12-07T13:15:43.047Z,2.9
2022-12-07T13:16:59.288Z,5.6
2022-12-07T13:18:15.541Z,2.9
2022-12-07T13:19:31.766Z,2
2022-12-07T13:20:48.011Z,5.2
2022-12-07T13:22:04.255Z,4.4
2022-12-07T13:23:19.514Z,3.4
2022-12-07T13:24:35.754Z,4.2
2022-12-07T13:25:51.983Z,4.7
2022-12-07T13:27:08.233Z,4.3
2022-12-07T13:28:24.464Z,3.4
2022-12-07T13:29:40.700Z,2.8
2022-12-07T13:30:56.937Z,3.9
2022-12-07T13:32:13.170Z,4.6
2022-12-07T13:33:29.415Z,2.1
2022-12-07T13:34:45.655Z,4.7
2022-12-07T13:36:01.893Z,2.5
2022-12-07T13:37:18.125Z,2.6
2022-12-07T13:38:34.371Z,5.3
2022-12-07T13:39:49.632Z,6.1
2022-12-07T13:41:05.870Z,4
2022-12-07T13:42:22.112Z,4
2022-12-07T13:43:38.357Z,2.9
2022-12-07T13:44:54.577Z,6.4
2022-12-07T13:46:10.828Z,2.6
2022-12-07T13:47:27.064Z,4.5
2022-12-07T13:48:43.295Z,2.9
2022-12-07T13:49:59.535Z,3.7
2022-12-07T13:51:15.778Z,4.1
2022-12-07T13:52:32.012Z,5.5
2022-12-07T13:53:48.265Z,2.8
2022-12-07T13:55:04.496Z,1.9
2022-12-07T13:56:19.757Z,2.3
2022-12-07T13:57:35.992Z,1.5
2022-12-07T13:58:52.233Z,2.4
2022-12-07T14:00:08.464Z,1.5
2022-12-07T14:01:24.702Z,2
2022-12-07T14:02:40.943Z,4.8
2022-12-07T14:03:57.177Z,2.5
2022-12-07T14:05:13.432Z,7.1
2022-12-07T14:06:29.672Z,2.3
2022-12-07T14:07:45.915Z,3.1
2022-12-07T14:09:02.149Z,4.7
2022-12-07T14:10:18.385Z,3.1
2022-12-07T14:11:34.628Z,2.4
2022-12-07T14:12:49.870Z,3.5
2022-12-07T14:14:06.121Z,3.9
2022-12-07T14:15:22.365Z,3.1
2022-12-07T14:16:38.600Z,2.2
2022-12-07T14:17:54.823Z,2.3
2022-12-07T14:19:11.075Z,3.3
2022-12-07T14:20:27.305Z,2.9
2022-12-07T14:21:43.553Z,5.2
2022-12-07T14:22:59.784Z,3.8
2022-12-07T14:24:16.026Z,4.2
2022-12-07T14:25:32.276Z,4
2022-12-07T14:26:48.497Z,3.8
2022-12-07T14:28:04.741Z,2.8
2022-12-07T14:29:20.000Z,4.1
2022-12-07T14:30:36.243Z,2.8
2022-12-07T14:31:52.469Z,3.5
2022-12-07T14:33:08.711Z,3.3
2022-12-07T14:34:24.966Z,2.9
2022-12-07T14:35:41.192Z,5.9
2022-12-07T14:36:57.444Z,1.9
2022-12-07T14:38:13.680Z,4.3
2022-12-07T14:39:29.924Z,2
2022-12-07T14:40:46.151Z,3.5
2022-12-07T14:42:02.394Z,5.6
2022-12-07T14:43:18.621Z,3.4
2022-12-07T14:44:34.860Z,4.9
2022-12-07T14:45:50.130Z,4.2
2022-12-07T14:47:06.370Z,1.7
2022-12-07T14:48:22.597Z,2.3
2022-12-07T14:49:38.838Z,2.4
2022-12-07T14:50:55.085Z,2.5
2022-12-07T14:52:11.316Z,2.5
2022-12-07T14:53:27.553Z,2.7
2022-12-07T14:54:43.793Z,4.5
2022-12-07T14:56:00.035Z,3.4
2022-12-07T14:57:16.272Z,2.5
2022-12-07T14:58:32.511Z,5.1
2022-12-07T14:59:48.759Z,3.3
2022-12-07T15:01:04.991Z,6.5
2022-12-07T15:02:20.244Z,2.9
2022-12-07T15:03:36.486Z,2.6
2022-12-07T15:04:52.000Z,2.4
2022-12-07T15:06:08.959Z,1.8
2022-12-07T15:07:25.215Z,1.8
2022-12-07T15:08:41.444Z,4.4
2022-12-07T15:09:57.000Z,3.2
2022-12-07T15:11:13.914Z,2.5
2022-12-07T15:12:30.164Z,5.5
2022-12-07T15:13:46.410Z,5.3
2022-12-07T15:15:02.637Z,4
2022-12-07T15:16:18.870Z,3.2
2022-12-07T15:17:35.128Z,5
2022-12-07T15:18:50.379Z,4.8
2022-12-07T15:20:06.604Z,3.2
2022-12-07T15:21:22.845Z,2.4
2022-12-07T15:22:39.100Z,4.1
2022-12-07T15:23:55.327Z,3.3
2022-12-07T15:25:11.568Z,4
2022-12-07T15:26:27.805Z,6.3
2022-12-07T15:27:44.045Z,1.5
2022-12-07T15:29:00.290Z,4.2
2022-12-07T15:30:16.515Z,2.7
2022-12-07T15:31:32.828Z,3.7
2022-12-07T15:32:49.067Z,4
2022-12-07T15:34:05.306Z,5.1
2022-12-07T15:35:20.567Z,3.6
2022-12-07T15:36:36.807Z,2.6
2022-12-07T15:37:53.053Z,4.4
2022-12-07T15:39:09.282Z,2.7
2022-12-07T15:40:25.514Z,6.3
2022-12-07T15:41:41.817Z,5.8
2022-12-07T15:42:58.117Z,3.8
2022-12-07T15:44:14.399Z,5.4
2022-12-07T15:45:30.689Z,2.6
2022-12-07T15:46:46.982Z,5.9
2022-12-07T15:48:03.289Z,4.9
2022-12-07T15:49:19.565Z,3.9
2022-12-07T15:50:35.858Z,2.1
2022-12-07T15:51:51.177Z,2.5
2022-12-07T15:53:07.471Z,3.8
2022-12-07T15:54:23.755Z,2.2
2022-12-07T15:55:40.048Z,5
2022-12-07T15:56:56.354Z,2.9
2022-12-07T15:58:12.638Z,2.2
2022-12-07T15:59:28.936Z,2.6
2022-12-07T16:00:45.222Z,4.1
2022-12-07T16:02:01.529Z,2.6
2022-12-07T16:03:17.814Z,2.5
2022-12-07T16:04:34.100Z,4.8
2022-12-07T16:05:50.397Z,7.4
2022-12-07T16:07:06.704Z,2.9
2022-12-07T16:08:21.995Z,3.5
2022-12-07T16:09:38.287Z,7
2022-12-07T16:10:54.598Z,4.4
2022-12-07T16:12:10.888Z,5.5
2022-12-07T16:13:27.183Z,5.3
2022-12-07T16:14:43.467Z,3.5
2022-12-07T16:15:59.771Z,3.2
2022-12-07T16:17:16.065Z,4.2
2022-12-07T16:18:32.346Z,7.9
2022-12-07T16:19:48.642Z,2.7
2022-12-07T16:21:04.939Z,3.5
2022-12-07T16:22:21.235Z,4
2022-12-07T16:23:37.528Z,14.2
2022-12-07T16:24:52.838Z,8.9
2022-12-07T16:26:09.122Z,4.4
2022-12-07T16:27:25.412Z,3.8
2022-12-07T16:28:41.710Z,1.9
2022-12-07T16:29:58.002Z,5.8
2022-12-07T16:31:14.296Z,5.2
2022-12-07T16:32:30.600Z,3.3
2022-12-07T16:33:46.894Z,5.7
2022-12-07T16:35:03.167Z,5.1
2022-12-07T16:36:19.475Z,3.4
2022-12-07T16:37:35.754Z,1.1
2022-12-07T16:38:52.065Z,2.2
2022-12-07T16:40:08.344Z,4.3
2022-12-07T16:41:23.651Z,3.8
2022-12-07T16:42:39.958Z,1.6
2022-12-07T16:43:56.235Z,1.1
2022-12-07T16:45:12.536Z,4.2
2022-12-07T16:46:28.823Z,2.6
2022-12-07T16:47:45.124Z,3.1
2022-12-07T16:49:01.411Z,6
2022-12-07T16:50:17.704Z,2.1
2022-12-07T16:51:33.995Z,1.9
2022-12-07T16:52:50.303Z,2.6
2022-12-07T16:54:06.584Z,3.7
2022-12-07T16:55:22.884Z,4.1
2022-12-07T16:56:39.185Z,5.2
2022-12-07T16:57:54.476Z,6
2022-12-07T16:59:10.785Z,6.8
2022-12-07T17:00:27.067Z,8.4
2022-12-07T17:01:43.363Z,6
2022-12-07T17:02:59.650Z,7.7
2022-12-07T17:04:15.941Z,5.6
2022-12-07T17:05:31.271Z,3
2022-12-07T17:06:47.553Z,5.3
2022-12-07T17:08:03.861Z,2.8
2022-12-07T17:09:20.142Z,2.6
2022-12-07T17:10:36.445Z,4.3
2022-12-07T17:11:52.741Z,3.8
2022-12-07T17:13:09.035Z,3.3
2022-12-07T17:14:25.322Z,1.7
2022-12-07T17:15:41.608Z,3.9
2022-12-07T17:16:57.897Z,3.4
2022-12-07T17:18:14.192Z,4.4
2022-12-07T17:19:30.487Z,3.1
2022-12-07T17:20:46.775Z,2.3
2022-12-07T17:22:02.092Z,2.1
2022-12-07T17:23:18.387Z,3.7
2022-12-07T17:24:34.687Z,4.7
2022-12-07T17:25:50.977Z,3.1
2022-12-07T17:27:07.270Z,2.9
2022-12-07T17:28:23.569Z,2.8
2022-12-07T17:29:39.850Z,4.1
2022-12-07T17:30:56.155Z,2.7